sensor_id;sensor_type;location;lat;lon;timestamp;P1;durP1;ratioP1;P2;durP2;ratioP2
14414;SDS011;7307;50.852;4.314;2022-10-22T00:01:15;7.40;;;1.47;;
14414;SDS011;7307;50.852;4.314;2022-10-22T00:03:41;4.70;;;1.33;;
14414;SDS011;7307;50.852;4.314;2022-10-22T00:06:06;9.20;;;2.10;;
14414;SDS011;7307;50.852;4.314;2022-10-22T00:08:32;8.50;;;1.80;;
14414;SDS011;7307;50.852;4.314;2022-10-22T00:10:58;7.23;;;1.87;;
14414;SDS011;7307;50.852;4.314;2022-10-22T00:13:31;11.70;;;2.27;;
14414;SDS011;7307;50.852;4.314;2022-10-22T00:15:56;5.47;;;1.93;;
14414;SDS011;7307;50.852;4.314;2022-10-22T00:18:22;9.50;;;2.37;;
14414;SDS011;7307;50.852;4.314;2022-10-22T00:20:48;10.73;;;2.20;;
14414;SDS011;7307;50.852;4.314;2022-10-22T00:23:13;8.53;;;1.87;;
14414;SDS011;7307;50.852;4.314;2022-10-22T00:25:39;9.27;;;2.30;;
14414;SDS011;7307;50.852;4.314;2022-10-22T00:28:04;7.30;;;1.90;;
14414;SDS011;7307;50.852;4.314;2022-10-22T00:30:30;8.50;;;1.80;;
14414;SDS011;7307;50.852;4.314;2022-10-22T00:32:56;14.30;;;2.33;;
14414;SDS011;7307;50.852;4.314;2022-10-22T00:35:21;9.07;;;1.73;;
14414;SDS011;7307;50.852;4.314;2022-10-22T00:37:47;10.63;;;2.00;;
14414;SDS011;7307;50.852;4.314;2022-10-22T00:40:12;6.47;;;1.87;;
14414;SDS011;7307;50.852;4.314;2022-10-22T00:42:38;8.50;;;2.00;;
14414;SDS011;7307;50.852;4.314;2022-10-22T00:47:36;6.07;;;1.90;;
14414;SDS011;7307;50.852;4.314;2022-10-22T00:52:58;7.57;;;2.40;;
14414;SDS011;7307;50.852;4.314;2022-10-22T00:55:26;8.33;;;1.67;;
14414;SDS011;7307;50.852;4.314;2022-10-22T00:57:53;7.23;;;2.00;;
14414;SDS011;7307;50.852;4.314;2022-10-22T01:00:20;7.47;;;1.67;;
14414;SDS011;7307;50.852;4.314;2022-10-22T01:02:46;6.33;;;1.90;;
14414;SDS011;7307;50.852;4.314;2022-10-22T01:05:13;7.17;;;2.20;;
14414;SDS011;7307;50.852;4.314;2022-10-22T01:07:49;5.30;;;1.80;;
14414;SDS011;7307;50.852;4.314;2022-10-22T01:10:37;4.20;;;1.87;;
14414;SDS011;7307;50.852;4.314;2022-10-22T01:13:32;8.40;;;2.17;;
14414;SDS011;7307;50.852;4.314;2022-10-22T01:16:22;7.43;;;1.87;;
14414;SDS011;7307;50.852;4.314;2022-10-22T01:21:46;13.77;;;2.23;;
14414;SDS011;7307;50.852;4.314;2022-10-22T01:26:56;4.20;;;1.70;;
14414;SDS011;7307;50.852;4.314;2022-10-22T01:29:38;4.67;;;1.93;;
14414;SDS011;7307;50.852;4.314;2022-10-22T01:32:12;4.77;;;1.53;;
14414;SDS011;7307;50.852;4.314;2022-10-22T01:34:46;5.07;;;1.53;;
14414;SDS011;7307;50.852;4.314;2022-10-22T01:37:16;6.63;;;1.83;;
14414;SDS011;7307;50.852;4.314;2022-10-22T01:39:44;7.10;;;1.83;;
14414;SDS011;7307;50.852;4.314;2022-10-22T01:42:12;5.23;;;1.40;;
14414;SDS011;7307;50.852;4.314;2022-10-22T01:44:38;6.07;;;1.60;;
14414;SDS011;7307;50.852;4.314;2022-10-22T01:49:43;5.13;;;1.93;;
14414;SDS011;7307;50.852;4.314;2022-10-22T01:52:24;6.60;;;1.83;;
14414;SDS011;7307;50.852;4.314;2022-10-22T01:55:41;3.97;;;1.37;;
14414;SDS011;7307;50.852;4.314;2022-10-22T02:00:32;4.43;;;1.80;;
14414;SDS011;7307;50.852;4.314;2022-10-22T02:03:08;8.10;;;1.80;;
14414;SDS011;7307;50.852;4.314;2022-10-22T02:05:42;6.77;;;1.77;;
14414;SDS011;7307;50.852;4.314;2022-10-22T02:08:13;6.00;;;1.97;;
14414;SDS011;7307;50.852;4.314;2022-10-22T02:10:42;4.00;;;1.60;;
14414;SDS011;7307;50.852;4.314;2022-10-22T02:13:11;4.17;;;1.47;;
14414;SDS011;7307;50.852;4.314;2022-10-22T02:15:41;6.57;;;1.73;;
14414;SDS011;7307;50.852;4.314;2022-10-22T02:18:09;5.60;;;2.00;;
14414;SDS011;7307;50.852;4.314;2022-10-22T02:20:36;4.93;;;1.97;;
14414;SDS011;7307;50.852;4.314;2022-10-22T02:23:03;6.97;;;2.30;;
14414;SDS011;7307;50.852;4.314;2022-10-22T02:25:31;7.10;;;1.93;;
14414;SDS011;7307;50.852;4.314;2022-10-22T02:30:33;5.17;;;1.60;;
14414;SDS011;7307;50.852;4.314;2022-10-22T02:35:44;5.37;;;1.80;;
14414;SDS011;7307;50.852;4.314;2022-10-22T02:38:11;3.63;;;1.50;;
14414;SDS011;7307;50.852;4.314;2022-10-22T02:40:38;5.07;;;1.33;;
14414;SDS011;7307;50.852;4.314;2022-10-22T02:43:04;3.77;;;1.47;;
14414;SDS011;7307;50.852;4.314;2022-10-22T02:45:30;8.00;;;2.40;;
14414;SDS011;7307;50.852;4.314;2022-10-22T02:47:56;5.90;;;1.50;;
14414;SDS011;7307;50.852;4.314;2022-10-22T02:50:22;6.20;;;1.67;;
14414;SDS011;7307;50.852;4.314;2022-10-22T02:52:48;5.20;;;1.50;;
14414;SDS011;7307;50.852;4.314;2022-10-22T02:55:13;6.30;;;1.27;;
14414;SDS011;7307;50.852;4.314;2022-10-22T02:57:39;3.80;;;1.40;;
14414;SDS011;7307;50.852;4.314;2022-10-22T03:00:05;9.23;;;1.67;;
14414;SDS011;7307;50.852;4.314;2022-10-22T03:02:31;4.77;;;2.17;;
14414;SDS011;7307;50.852;4.314;2022-10-22T03:04:57;7.13;;;1.80;;
14414;SDS011;7307;50.852;4.314;2022-10-22T03:07:23;7.97;;;1.60;;
14414;SDS011;7307;50.852;4.314;2022-10-22T03:09:48;8.67;;;1.60;;
14414;SDS011;7307;50.852;4.314;2022-10-22T03:12:14;4.03;;;1.70;;
14414;SDS011;7307;50.852;4.314;2022-10-22T03:14:40;3.27;;;1.30;;
14414;SDS011;7307;50.852;4.314;2022-10-22T03:17:05;4.17;;;1.70;;
14414;SDS011;7307;50.852;4.314;2022-10-22T03:19:31;4.50;;;1.60;;
14414;SDS011;7307;50.852;4.314;2022-10-22T03:22:01;4.87;;;1.90;;
14414;SDS011;7307;50.852;4.314;2022-10-22T03:24:38;3.93;;;1.57;;
14414;SDS011;7307;50.852;4.314;2022-10-22T03:27:09;4.40;;;1.50;;
14414;SDS011;7307;50.852;4.314;2022-10-22T03:29:38;4.23;;;1.70;;
14414;SDS011;7307;50.852;4.314;2022-10-22T03:32:05;4.67;;;1.67;;
14414;SDS011;7307;50.852;4.314;2022-10-22T03:34:31;5.93;;;1.37;;
14414;SDS011;7307;50.852;4.314;2022-10-22T03:36:57;6.70;;;2.47;;
14414;SDS011;7307;50.852;4.314;2022-10-22T03:39:24;5.50;;;1.50;;
14414;SDS011;7307;50.852;4.314;2022-10-22T03:41:53;4.30;;;1.30;;
14414;SDS011;7307;50.852;4.314;2022-10-22T03:44:18;9.60;;;1.93;;
14414;SDS011;7307;50.852;4.314;2022-10-22T03:46:46;4.47;;;1.47;;
14414;SDS011;7307;50.852;4.314;2022-10-22T03:49:11;5.57;;;1.67;;
14414;SDS011;7307;50.852;4.314;2022-10-22T03:51:37;4.67;;;1.83;;
14414;SDS011;7307;50.852;4.314;2022-10-22T03:54:02;4.63;;;1.60;;
14414;SDS011;7307;50.852;4.314;2022-10-22T03:56:28;4.83;;;1.50;;
14414;SDS011;7307;50.852;4.314;2022-10-22T03:58:55;5.70;;;1.60;;
14414;SDS011;7307;50.852;4.314;2022-10-22T04:01:21;6.37;;;1.60;;
14414;SDS011;7307;50.852;4.314;2022-10-22T04:03:47;7.17;;;1.60;;
14414;SDS011;7307;50.852;4.314;2022-10-22T04:06:12;4.07;;;1.47;;
14414;SDS011;7307;50.852;4.314;2022-10-22T04:08:39;6.13;;;1.63;;
14414;SDS011;7307;50.852;4.314;2022-10-22T04:11:05;6.50;;;1.93;;
14414;SDS011;7307;50.852;4.314;2022-10-22T04:13:31;5.00;;;1.63;;
14414;SDS011;7307;50.852;4.314;2022-10-22T04:18:56;4.47;;;1.70;;
14414;SDS011;7307;50.852;4.314;2022-10-22T04:21:22;4.23;;;1.43;;
14414;SDS011;7307;50.852;4.314;2022-10-22T04:23:49;6.73;;;1.63;;
14414;SDS011;7307;50.852;4.314;2022-10-22T04:26:17;7.17;;;1.90;;
14414;SDS011;7307;50.852;4.314;2022-10-22T04:28:43;3.47;;;1.20;;
14414;SDS011;7307;50.852;4.314;2022-10-22T04:31:12;4.07;;;1.50;;
14414;SDS011;7307;50.852;4.314;2022-10-22T04:33:39;5.40;;;1.83;;
14414;SDS011;7307;50.852;4.314;2022-10-22T04:36:06;4.00;;;1.50;;
14414;SDS011;7307;50.852;4.314;2022-10-22T04:38:42;2.93;;;1.40;;
14414;SDS011;7307;50.852;4.314;2022-10-22T04:41:16;6.33;;;1.40;;
14414;SDS011;7307;50.852;4.314;2022-10-22T04:43:44;3.47;;;1.37;;
14414;SDS011;7307;50.852;4.314;2022-10-22T04:46:11;5.97;;;1.70;;
14414;SDS011;7307;50.852;4.314;2022-10-22T04:48:38;6.67;;;1.20;;
14414;SDS011;7307;50.852;4.314;2022-10-22T04:51:05;3.73;;;1.53;;
14414;SDS011;7307;50.852;4.314;2022-10-22T04:53:33;4.83;;;1.73;;
14414;SDS011;7307;50.852;4.314;2022-10-22T04:56:09;7.63;;;1.67;;
14414;SDS011;7307;50.852;4.314;2022-10-22T04:58:47;7.10;;;1.70;;
14414;SDS011;7307;50.852;4.314;2022-10-22T05:03:42;6.20;;;1.63;;
14414;SDS011;7307;50.852;4.314;2022-10-22T05:06:08;5.80;;;1.50;;
14414;SDS011;7307;50.852;4.314;2022-10-22T05:08:35;5.37;;;1.50;;
14414;SDS011;7307;50.852;4.314;2022-10-22T05:11:00;10.40;;;1.70;;
14414;SDS011;7307;50.852;4.314;2022-10-22T05:13:34;6.50;;;1.80;;
14414;SDS011;7307;50.852;4.314;2022-10-22T05:16:00;5.57;;;1.60;;
14414;SDS011;7307;50.852;4.314;2022-10-22T05:18:26;4.07;;;1.80;;
14414;SDS011;7307;50.852;4.314;2022-10-22T05:20:51;8.03;;;1.47;;
14414;SDS011;7307;50.852;4.314;2022-10-22T05:23:17;5.93;;;1.60;;
14414;SDS011;7307;50.852;4.314;2022-10-22T05:25:42;3.73;;;1.33;;
14414;SDS011;7307;50.852;4.314;2022-10-22T05:28:08;4.30;;;1.63;;
14414;SDS011;7307;50.852;4.314;2022-10-22T05:30:33;3.73;;;1.70;;
14414;SDS011;7307;50.852;4.314;2022-10-22T05:32:59;5.03;;;1.73;;
14414;SDS011;7307;50.852;4.314;2022-10-22T05:35:25;3.60;;;1.47;;
14414;SDS011;7307;50.852;4.314;2022-10-22T05:37:50;3.43;;;1.20;;
14414;SDS011;7307;50.852;4.314;2022-10-22T05:40:16;4.20;;;1.60;;
14414;SDS011;7307;50.852;4.314;2022-10-22T05:42:41;5.23;;;1.70;;
14414;SDS011;7307;50.852;4.314;2022-10-22T05:45:07;4.10;;;1.60;;
14414;SDS011;7307;50.852;4.314;2022-10-22T05:47:33;4.63;;;1.43;;
14414;SDS011;7307;50.852;4.314;2022-10-22T05:49:58;5.23;;;1.53;;
14414;SDS011;7307;50.852;4.314;2022-10-22T05:52:24;2.83;;;1.43;;
14414;SDS011;7307;50.852;4.314;2022-10-22T05:54:50;3.27;;;1.67;;
14414;SDS011;7307;50.852;4.314;2022-10-22T05:57:16;6.23;;;1.60;;
14414;SDS011;7307;50.852;4.314;2022-10-22T05:59:41;2.93;;;1.37;;
14414;SDS011;7307;50.852;4.314;2022-10-22T06:02:07;7.07;;;1.27;;
14414;SDS011;7307;50.852;4.314;2022-10-22T06:04:33;3.93;;;1.33;;
14414;SDS011;7307;50.852;4.314;2022-10-22T06:06:59;4.07;;;1.30;;
14414;SDS011;7307;50.852;4.314;2022-10-22T06:09:26;4.53;;;1.67;;
14414;SDS011;7307;50.852;4.314;2022-10-22T06:11:54;2.90;;;1.27;;
14414;SDS011;7307;50.852;4.314;2022-10-22T06:14:21;4.60;;;1.47;;
14414;SDS011;7307;50.852;4.314;2022-10-22T06:16:47;2.03;;;1.00;;
14414;SDS011;7307;50.852;4.314;2022-10-22T06:19:14;4.20;;;1.50;;
14414;SDS011;7307;50.852;4.314;2022-10-22T06:21:41;4.30;;;1.53;;
14414;SDS011;7307;50.852;4.314;2022-10-22T06:24:07;2.87;;;1.40;;
14414;SDS011;7307;50.852;4.314;2022-10-22T06:26:34;4.90;;;1.30;;
14414;SDS011;7307;50.852;4.314;2022-10-22T06:29:00;3.50;;;1.27;;
14414;SDS011;7307;50.852;4.314;2022-10-22T06:31:26;3.17;;;1.40;;
14414;SDS011;7307;50.852;4.314;2022-10-22T06:33:52;4.13;;;1.57;;
14414;SDS011;7307;50.852;4.314;2022-10-22T06:36:19;3.50;;;1.40;;
14414;SDS011;7307;50.852;4.314;2022-10-22T06:38:46;3.07;;;1.40;;
14414;SDS011;7307;50.852;4.314;2022-10-22T06:41:15;5.40;;;1.27;;
14414;SDS011;7307;50.852;4.314;2022-10-22T06:43:41;8.03;;;2.17;;
14414;SDS011;7307;50.852;4.314;2022-10-22T06:46:12;3.97;;;1.50;;
14414;SDS011;7307;50.852;4.314;2022-10-22T06:48:41;5.33;;;1.63;;
14414;SDS011;7307;50.852;4.314;2022-10-22T06:51:09;3.37;;;1.30;;
14414;SDS011;7307;50.852;4.314;2022-10-22T06:53:36;8.03;;;1.60;;
14414;SDS011;7307;50.852;4.314;2022-10-22T06:56:09;4.27;;;1.20;;
14414;SDS011;7307;50.852;4.314;2022-10-22T06:58:37;3.70;;;1.13;;
14414;SDS011;7307;50.852;4.314;2022-10-22T07:01:10;4.17;;;1.17;;
14414;SDS011;7307;50.852;4.314;2022-10-22T07:03:38;2.83;;;1.37;;
14414;SDS011;7307;50.852;4.314;2022-10-22T07:06:06;2.27;;;0.97;;
14414;SDS011;7307;50.852;4.314;2022-10-22T07:08:34;3.80;;;1.73;;
14414;SDS011;7307;50.852;4.314;2022-10-22T07:11:11;4.37;;;1.90;;
14414;SDS011;7307;50.852;4.314;2022-10-22T07:13:38;9.07;;;1.67;;
14414;SDS011;7307;50.852;4.314;2022-10-22T07:16:05;10.80;;;1.60;;
14414;SDS011;7307;50.852;4.314;2022-10-22T07:18:31;5.53;;;1.40;;
14414;SDS011;7307;50.852;4.314;2022-10-22T07:20:58;3.07;;;1.47;;
14414;SDS011;7307;50.852;4.314;2022-10-22T07:23:23;5.30;;;1.20;;
14414;SDS011;7307;50.852;4.314;2022-10-22T07:25:49;3.60;;;1.40;;
14414;SDS011;7307;50.852;4.314;2022-10-22T07:28:15;5.17;;;1.50;;
14414;SDS011;7307;50.852;4.314;2022-10-22T07:30:41;4.50;;;1.20;;
14414;SDS011;7307;50.852;4.314;2022-10-22T07:33:06;7.00;;;1.50;;
14414;SDS011;7307;50.852;4.314;2022-10-22T07:35:32;6.23;;;1.47;;
14414;SDS011;7307;50.852;4.314;2022-10-22T07:37:58;5.60;;;1.87;;
14414;SDS011;7307;50.852;4.314;2022-10-22T07:40:24;10.63;;;2.33;;
14414;SDS011;7307;50.852;4.314;2022-10-22T07:42:50;6.20;;;1.47;;
14414;SDS011;7307;50.852;4.314;2022-10-22T07:45:15;13.10;;;1.83;;
14414;SDS011;7307;50.852;4.314;2022-10-22T07:47:41;14.80;;;2.47;;
14414;SDS011;7307;50.852;4.314;2022-10-22T07:50:07;11.20;;;2.60;;
14414;SDS011;7307;50.852;4.314;2022-10-22T07:52:33;10.40;;;2.47;;
14414;SDS011;7307;50.852;4.314;2022-10-22T07:54:59;8.50;;;1.83;;
14414;SDS011;7307;50.852;4.314;2022-10-22T07:57:24;6.83;;;2.10;;
14414;SDS011;7307;50.852;4.314;2022-10-22T07:59:50;7.43;;;1.70;;
14414;SDS011;7307;50.852;4.314;2022-10-22T08:02:15;7.27;;;1.90;;
14414;SDS011;7307;50.852;4.314;2022-10-22T08:04:41;5.20;;;1.73;;
14414;SDS011;7307;50.852;4.314;2022-10-22T08:07:07;3.53;;;1.33;;
14414;SDS011;7307;50.852;4.314;2022-10-22T08:09:32;4.93;;;1.40;;
14414;SDS011;7307;50.852;4.314;2022-10-22T08:11:58;7.10;;;2.67;;
14414;SDS011;7307;50.852;4.314;2022-10-22T08:14:24;4.37;;;1.30;;
14414;SDS011;7307;50.852;4.314;2022-10-22T08:16:49;7.40;;;1.20;;
14414;SDS011;7307;50.852;4.314;2022-10-22T08:19:15;6.23;;;1.53;;
14414;SDS011;7307;50.852;4.314;2022-10-22T08:21:45;4.17;;;1.50;;
14414;SDS011;7307;50.852;4.314;2022-10-22T08:24:12;3.07;;;1.30;;
14414;SDS011;7307;50.852;4.314;2022-10-22T08:26:38;8.00;;;1.80;;
14414;SDS011;7307;50.852;4.314;2022-10-22T08:29:04;3.87;;;1.93;;
14414;SDS011;7307;50.852;4.314;2022-10-22T08:31:30;8.27;;;1.83;;
14414;SDS011;7307;50.852;4.314;2022-10-22T08:33:56;13.80;;;2.07;;
14414;SDS011;7307;50.852;4.314;2022-10-22T08:36:21;15.50;;;2.77;;
14414;SDS011;7307;50.852;4.314;2022-10-22T08:38:47;12.77;;;2.70;;
14414;SDS011;7307;50.852;4.314;2022-10-22T08:41:13;10.53;;;2.40;;
14414;SDS011;7307;50.852;4.314;2022-10-22T08:49:27;6.57;;;1.70;;
14414;SDS011;7307;50.852;4.314;2022-10-22T08:51:57;6.47;;;1.60;;
14414;SDS011;7307;50.852;4.314;2022-10-22T09:00:23;5.17;;;1.80;;
14414;SDS011;7307;50.852;4.314;2022-10-22T09:06:17;6.47;;;2.00;;
14414;SDS011;7307;50.852;4.314;2022-10-22T09:08:46;6.77;;;1.70;;
14414;SDS011;7307;50.852;4.314;2022-10-22T09:13:56;5.20;;;1.90;;
14414;SDS011;7307;50.852;4.314;2022-10-22T09:16:34;9.03;;;1.67;;
14414;SDS011;7307;50.852;4.314;2022-10-22T09:25:18;7.37;;;1.43;;
14414;SDS011;7307;50.852;4.314;2022-10-22T09:27:50;6.90;;;1.63;;
14414;SDS011;7307;50.852;4.314;2022-10-22T09:30:23;8.40;;;1.87;;
14414;SDS011;7307;50.852;4.314;2022-10-22T09:33:13;6.63;;;1.50;;
14414;SDS011;7307;50.852;4.314;2022-10-22T09:35:50;6.63;;;1.67;;
14414;SDS011;7307;50.852;4.314;2022-10-22T09:38:19;8.70;;;1.70;;
14414;SDS011;7307;50.852;4.314;2022-10-22T09:40:49;9.70;;;1.43;;
14414;SDS011;7307;50.852;4.314;2022-10-22T09:43:18;6.63;;;1.80;;
14414;SDS011;7307;50.852;4.314;2022-10-22T09:45:44;7.57;;;1.67;;
14414;SDS011;7307;50.852;4.314;2022-10-22T09:53:11;7.43;;;1.73;;
14414;SDS011;7307;50.852;4.314;2022-10-22T09:55:41;6.53;;;1.57;;
14414;SDS011;7307;50.852;4.314;2022-10-22T09:58:11;8.67;;;1.70;;
14414;SDS011;7307;50.852;4.314;2022-10-22T10:00:38;6.70;;;2.00;;
14414;SDS011;7307;50.852;4.314;2022-10-22T10:03:05;6.87;;;1.40;;
14414;SDS011;7307;50.852;4.314;2022-10-22T10:05:32;6.63;;;1.50;;
14414;SDS011;7307;50.852;4.314;2022-10-22T10:08:06;5.90;;;1.47;;
14414;SDS011;7307;50.852;4.314;2022-10-22T10:10:47;5.13;;;1.43;;
14414;SDS011;7307;50.852;4.314;2022-10-22T10:13:16;9.00;;;1.63;;
14414;SDS011;7307;50.852;4.314;2022-10-22T10:15:49;9.57;;;2.23;;
14414;SDS011;7307;50.852;4.314;2022-10-22T10:18:53;4.83;;;1.60;;
14414;SDS011;7307;50.852;4.314;2022-10-22T10:21:35;8.97;;;2.23;;
14414;SDS011;7307;50.852;4.314;2022-10-22T10:24:23;7.57;;;1.97;;
14414;SDS011;7307;50.852;4.314;2022-10-22T10:27:22;7.03;;;1.70;;
14414;SDS011;7307;50.852;4.314;2022-10-22T10:32:52;9.53;;;1.90;;
14414;SDS011;7307;50.852;4.314;2022-10-22T10:35:44;5.80;;;1.77;;
14414;SDS011;7307;50.852;4.314;2022-10-22T10:38:36;6.67;;;1.67;;
14414;SDS011;7307;50.852;4.314;2022-10-22T10:41:10;6.97;;;1.80;;
14414;SDS011;7307;50.852;4.314;2022-10-22T10:46:30;9.17;;;1.87;;
14414;SDS011;7307;50.852;4.314;2022-10-22T10:49:16;5.40;;;1.30;;
14414;SDS011;7307;50.852;4.314;2022-10-22T10:51:45;8.10;;;1.83;;
14414;SDS011;7307;50.852;4.314;2022-10-22T10:54:34;6.93;;;1.90;;
14414;SDS011;7307;50.852;4.314;2022-10-22T10:59:57;7.13;;;1.90;;
14414;SDS011;7307;50.852;4.314;2022-10-22T11:08:05;4.37;;;1.20;;
14414;SDS011;7307;50.852;4.314;2022-10-22T11:10:55;9.13;;;1.70;;
14414;SDS011;7307;50.852;4.314;2022-10-22T11:13:35;6.20;;;1.60;;
14414;SDS011;7307;50.852;4.314;2022-10-22T11:18:40;6.03;;;1.77;;
14414;SDS011;7307;50.852;4.314;2022-10-22T11:21:30;6.10;;;1.57;;
14414;SDS011;7307;50.852;4.314;2022-10-22T11:26:51;4.43;;;1.10;;
14414;SDS011;7307;50.852;4.314;2022-10-22T11:29:26;11.80;;;1.70;;
14414;SDS011;7307;50.852;4.314;2022-10-22T11:31:56;5.77;;;1.47;;
14414;SDS011;7307;50.852;4.314;2022-10-22T11:37:24;6.03;;;1.47;;
14414;SDS011;7307;50.852;4.314;2022-10-22T11:39:57;6.77;;;1.10;;
14414;SDS011;7307;50.852;4.314;2022-10-22T11:42:33;12.13;;;1.77;;
14414;SDS011;7307;50.852;4.314;2022-10-22T11:45:03;4.47;;;1.23;;
14414;SDS011;7307;50.852;4.314;2022-10-22T11:47:37;6.63;;;1.97;;
14414;SDS011;7307;50.852;4.314;2022-10-22T11:52:46;6.00;;;1.37;;
14414;SDS011;7307;50.852;4.314;2022-10-22T11:55:31;5.53;;;1.37;;
14414;SDS011;7307;50.852;4.314;2022-10-22T12:01:40;7.60;;;1.87;;
14414;SDS011;7307;50.852;4.314;2022-10-22T12:16:38;5.20;;;1.73;;
14414;SDS011;7307;50.852;4.314;2022-10-22T12:22:26;6.37;;;1.30;;
14414;SDS011;7307;50.852;4.314;2022-10-22T12:24:55;7.70;;;1.20;;
14414;SDS011;7307;50.852;4.314;2022-10-22T12:27:35;4.77;;;1.50;;
14414;SDS011;7307;50.852;4.314;2022-10-22T12:30:12;4.63;;;1.43;;
14414;SDS011;7307;50.852;4.314;2022-10-22T12:32:55;3.43;;;1.13;;
14414;SDS011;7307;50.852;4.314;2022-10-22T12:35:25;6.03;;;1.20;;
14414;SDS011;7307;50.852;4.314;2022-10-22T12:37:56;5.23;;;1.27;;
14414;SDS011;7307;50.852;4.314;2022-10-22T12:40:25;5.83;;;1.30;;
14414;SDS011;7307;50.852;4.314;2022-10-22T12:42:58;5.80;;;1.63;;
14414;SDS011;7307;50.852;4.314;2022-10-22T12:45:26;2.97;;;1.17;;
14414;SDS011;7307;50.852;4.314;2022-10-22T12:47:57;2.60;;;0.90;;
14414;SDS011;7307;50.852;4.314;2022-10-22T12:50:30;4.43;;;1.07;;
14414;SDS011;7307;50.852;4.314;2022-10-22T12:52:58;5.70;;;1.10;;
14414;SDS011;7307;50.852;4.314;2022-10-22T12:55:24;3.00;;;1.10;;
14414;SDS011;7307;50.852;4.314;2022-10-22T12:57:51;4.27;;;1.57;;
14414;SDS011;7307;50.852;4.314;2022-10-22T13:00:24;4.87;;;1.43;;
14414;SDS011;7307;50.852;4.314;2022-10-22T13:02:52;5.10;;;1.40;;
14414;SDS011;7307;50.852;4.314;2022-10-22T13:07:53;4.70;;;1.23;;
14414;SDS011;7307;50.852;4.314;2022-10-22T13:10:34;3.73;;;1.60;;
14414;SDS011;7307;50.852;4.314;2022-10-22T13:13:02;6.70;;;1.40;;
14414;SDS011;7307;50.852;4.314;2022-10-22T13:15:32;3.57;;;1.20;;
14414;SDS011;7307;50.852;4.314;2022-10-22T13:20:31;4.33;;;1.10;;
14414;SDS011;7307;50.852;4.314;2022-10-22T13:22:58;3.67;;;0.97;;
14414;SDS011;7307;50.852;4.314;2022-10-22T13:25:26;6.43;;;1.10;;
14414;SDS011;7307;50.852;4.314;2022-10-22T13:30:49;4.77;;;0.90;;
14414;SDS011;7307;50.852;4.314;2022-10-22T13:33:35;1.80;;;0.80;;
14414;SDS011;7307;50.852;4.314;2022-10-22T13:36:03;4.70;;;1.27;;
14414;SDS011;7307;50.852;4.314;2022-10-22T13:38:30;4.67;;;0.90;;
14414;SDS011;7307;50.852;4.314;2022-10-22T13:40:55;3.77;;;1.23;;
14414;SDS011;7307;50.852;4.314;2022-10-22T13:43:21;4.93;;;1.20;;
14414;SDS011;7307;50.852;4.314;2022-10-22T13:45:47;3.53;;;1.07;;
14414;SDS011;7307;50.852;4.314;2022-10-22T13:48:19;2.83;;;1.00;;
14414;SDS011;7307;50.852;4.314;2022-10-22T13:50:49;5.07;;;1.43;;
14414;SDS011;7307;50.852;4.314;2022-10-22T13:53:19;5.07;;;1.20;;
14414;SDS011;7307;50.852;4.314;2022-10-22T13:55:47;6.60;;;1.00;;
14414;SDS011;7307;50.852;4.314;2022-10-22T13:58:15;2.97;;;1.07;;
14414;SDS011;7307;50.852;4.314;2022-10-22T14:00:44;4.50;;;1.03;;
14414;SDS011;7307;50.852;4.314;2022-10-22T14:03:11;5.37;;;1.20;;
14414;SDS011;7307;50.852;4.314;2022-10-22T14:05:40;3.43;;;1.10;;
14414;SDS011;7307;50.852;4.314;2022-10-22T14:08:13;4.60;;;1.40;;
14414;SDS011;7307;50.852;4.314;2022-10-22T14:10:40;4.30;;;1.03;;
14414;SDS011;7307;50.852;4.314;2022-10-22T14:13:07;4.20;;;1.23;;
14414;SDS011;7307;50.852;4.314;2022-10-22T14:15:35;4.80;;;1.30;;
14414;SDS011;7307;50.852;4.314;2022-10-22T14:18:01;2.90;;;1.00;;
14414;SDS011;7307;50.852;4.314;2022-10-22T14:20:29;4.90;;;1.47;;
14414;SDS011;7307;50.852;4.314;2022-10-22T14:22:59;5.97;;;1.30;;
14414;SDS011;7307;50.852;4.314;2022-10-22T14:25:35;5.00;;;1.20;;
14414;SDS011;7307;50.852;4.314;2022-10-22T14:28:01;7.17;;;1.03;;
14414;SDS011;7307;50.852;4.314;2022-10-22T14:30:26;4.83;;;1.37;;
14414;SDS011;7307;50.852;4.314;2022-10-22T14:32:54;4.77;;;1.13;;
14414;SDS011;7307;50.852;4.314;2022-10-22T14:35:21;5.33;;;1.63;;
14414;SDS011;7307;50.852;4.314;2022-10-22T14:37:47;1.67;;;0.93;;
14414;SDS011;7307;50.852;4.314;2022-10-22T14:40:14;5.63;;;1.30;;
14414;SDS011;7307;50.852;4.314;2022-10-22T14:42:42;4.80;;;1.17;;
14414;SDS011;7307;50.852;4.314;2022-10-22T14:45:16;7.13;;;1.20;;
14414;SDS011;7307;50.852;4.314;2022-10-22T14:47:44;5.00;;;1.40;;
14414;SDS011;7307;50.852;4.314;2022-10-22T14:50:10;4.33;;;0.87;;
14414;SDS011;7307;50.852;4.314;2022-10-22T14:52:37;5.90;;;1.67;;
14414;SDS011;7307;50.852;4.314;2022-10-22T14:55:03;4.33;;;1.20;;
14414;SDS011;7307;50.852;4.314;2022-10-22T14:57:29;6.27;;;1.20;;
14414;SDS011;7307;50.852;4.314;2022-10-22T14:59:54;4.20;;;1.37;;
14414;SDS011;7307;50.852;4.314;2022-10-22T15:02:20;4.03;;;1.33;;
14414;SDS011;7307;50.852;4.314;2022-10-22T15:04:47;4.23;;;1.43;;
14414;SDS011;7307;50.852;4.314;2022-10-22T15:07:12;4.90;;;1.40;;
14414;SDS011;7307;50.852;4.314;2022-10-22T15:09:38;3.77;;;1.20;;
14414;SDS011;7307;50.852;4.314;2022-10-22T15:12:04;8.33;;;1.53;;
14414;SDS011;7307;50.852;4.314;2022-10-22T15:14:29;4.53;;;1.10;;
14414;SDS011;7307;50.852;4.314;2022-10-22T15:16:55;5.33;;;1.50;;
14414;SDS011;7307;50.852;4.314;2022-10-22T15:19:21;3.40;;;1.17;;
14414;SDS011;7307;50.852;4.314;2022-10-22T15:21:46;5.80;;;1.33;;
14414;SDS011;7307;50.852;4.314;2022-10-22T15:24:12;5.23;;;1.50;;
14414;SDS011;7307;50.852;4.314;2022-10-22T15:26:38;6.83;;;1.63;;
14414;SDS011;7307;50.852;4.314;2022-10-22T15:29:06;2.50;;;1.10;;
14414;SDS011;7307;50.852;4.314;2022-10-22T15:31:45;4.73;;;1.60;;
14414;SDS011;7307;50.852;4.314;2022-10-22T15:34:18;5.30;;;1.43;;
14414;SDS011;7307;50.852;4.314;2022-10-22T15:36:45;5.20;;;1.20;;
14414;SDS011;7307;50.852;4.314;2022-10-22T15:39:11;4.47;;;1.27;;
14414;SDS011;7307;50.852;4.314;2022-10-22T15:41:37;3.37;;;1.10;;
14414;SDS011;7307;50.852;4.314;2022-10-22T15:44:03;5.57;;;1.30;;
14414;SDS011;7307;50.852;4.314;2022-10-22T15:46:30;4.63;;;1.60;;
14414;SDS011;7307;50.852;4.314;2022-10-22T15:48:56;4.47;;;1.37;;
14414;SDS011;7307;50.852;4.314;2022-10-22T15:51:22;5.13;;;1.40;;
14414;SDS011;7307;50.852;4.314;2022-10-22T15:53:52;5.57;;;1.67;;
14414;SDS011;7307;50.852;4.314;2022-10-22T15:56:19;4.37;;;1.20;;
14414;SDS011;7307;50.852;4.314;2022-10-22T15:58:44;6.03;;;1.27;;
14414;SDS011;7307;50.852;4.314;2022-10-22T16:01:11;4.17;;;1.63;;
14414;SDS011;7307;50.852;4.314;2022-10-22T16:03:38;8.50;;;2.40;;
14414;SDS011;7307;50.852;4.314;2022-10-22T16:06:05;12.73;;;3.90;;
14414;SDS011;7307;50.852;4.314;2022-10-22T16:08:32;12.13;;;3.73;;
14414;SDS011;7307;50.852;4.314;2022-10-22T16:10:58;10.73;;;4.43;;
14414;SDS011;7307;50.852;4.314;2022-10-22T16:13:23;17.97;;;5.67;;
14414;SDS011;7307;50.852;4.314;2022-10-22T16:15:50;21.03;;;5.23;;
14414;SDS011;7307;50.852;4.314;2022-10-22T16:18:17;19.80;;;5.37;;
14414;SDS011;7307;50.852;4.314;2022-10-22T16:20:43;17.37;;;4.93;;
14414;SDS011;7307;50.852;4.314;2022-10-22T16:23:09;16.53;;;4.93;;
14414;SDS011;7307;50.852;4.314;2022-10-22T16:25:38;14.87;;;4.10;;
14414;SDS011;7307;50.852;4.314;2022-10-22T16:28:05;13.67;;;3.50;;
14414;SDS011;7307;50.852;4.314;2022-10-22T16:30:31;10.23;;;3.40;;
14414;SDS011;7307;50.852;4.314;2022-10-22T16:32:58;13.90;;;3.83;;
14414;SDS011;7307;50.852;4.314;2022-10-22T16:35:24;10.80;;;3.53;;
14414;SDS011;7307;50.852;4.314;2022-10-22T16:37:50;9.50;;;3.10;;
14414;SDS011;7307;50.852;4.314;2022-10-22T16:40:15;12.30;;;3.33;;
14414;SDS011;7307;50.852;4.314;2022-10-22T16:42:41;11.20;;;3.47;;
14414;SDS011;7307;50.852;4.314;2022-10-22T16:45:08;17.00;;;3.57;;
14414;SDS011;7307;50.852;4.314;2022-10-22T16:47:34;11.60;;;3.30;;
14414;SDS011;7307;50.852;4.314;2022-10-22T16:49:59;14.03;;;3.60;;
14414;SDS011;7307;50.852;4.314;2022-10-22T16:52:25;13.60;;;3.17;;
14414;SDS011;7307;50.852;4.314;2022-10-22T16:54:51;10.23;;;3.00;;
14414;SDS011;7307;50.852;4.314;2022-10-22T16:57:16;7.63;;;2.67;;
14414;SDS011;7307;50.852;4.314;2022-10-22T16:59:42;8.60;;;2.87;;